sensor_id;sensor_type;location;lat;lon;timestamp;P1;durP1;ratioP1;P2;durP2;ratioP2
946;SDS011;460;48.734;9.152;2022-09-14T00:01:52;2.33;;;1.50;;
946;SDS011;460;48.734;9.152;2022-09-14T00:04:19;2.33;;;2.13;;
946;SDS011;460;48.734;9.152;2022-09-14T00:06:47;1.60;;;1.50;;
946;SDS011;460;48.734;9.152;2022-09-14T00:09:17;2.40;;;1.70;;
946;SDS011;460;48.734;9.152;2022-09-14T00:11:45;1.57;;;1.23;;
946;SDS011;460;48.734;9.152;2022-09-14T00:14:13;1.67;;;1.57;;
946;SDS011;460;48.734;9.152;2022-09-14T00:16:40;1.20;;;1.10;;
946;SDS011;460;48.734;9.152;2022-09-14T00:19:12;1.67;;;1.50;;
946;SDS011;460;48.734;9.152;2022-09-14T00:21:41;1.40;;;1.40;;
946;SDS011;460;48.734;9.152;2022-09-14T00:24:08;1.67;;;1.57;;
946;SDS011;460;48.734;9.152;2022-09-14T00:26:37;1.30;;;1.20;;
946;SDS011;460;48.734;9.152;2022-09-14T00:29:04;2.00;;;1.43;;
946;SDS011;460;48.734;9.152;2022-09-14T00:31:31;1.60;;;1.40;;
946;SDS011;460;48.734;9.152;2022-09-14T00:33:59;2.47;;;1.47;;
946;SDS011;460;48.734;9.152;2022-09-14T00:36:27;2.57;;;1.87;;
946;SDS011;460;48.734;9.152;2022-09-14T00:38:55;1.30;;;1.20;;
946;SDS011;460;48.734;9.152;2022-09-14T00:41:23;1.77;;;1.67;;
946;SDS011;460;48.734;9.152;2022-09-14T00:43:57;1.63;;;1.53;;
946;SDS011;460;48.734;9.152;2022-09-14T00:46:26;1.50;;;1.40;;
946;SDS011;460;48.734;9.152;2022-09-14T00:48:55;1.30;;;1.30;;
946;SDS011;460;48.734;9.152;2022-09-14T00:51:24;1.63;;;1.53;;
946;SDS011;460;48.734;9.152;2022-09-14T00:53:52;1.23;;;1.20;;
946;SDS011;460;48.734;9.152;2022-09-14T00:56:19;1.70;;;1.60;;
946;SDS011;460;48.734;9.152;2022-09-14T00:58:46;2.20;;;2.00;;
946;SDS011;460;48.734;9.152;2022-09-14T01:01:17;1.50;;;1.40;;
946;SDS011;460;48.734;9.152;2022-09-14T01:03:44;1.60;;;1.50;;
946;SDS011;460;48.734;9.152;2022-09-14T01:06:14;1.90;;;1.80;;
946;SDS011;460;48.734;9.152;2022-09-14T01:08:54;1.63;;;1.37;;
946;SDS011;460;48.734;9.152;2022-09-14T01:11:42;3.07;;;1.30;;
946;SDS011;460;48.734;9.152;2022-09-14T01:14:20;1.57;;;1.47;;
946;SDS011;460;48.734;9.152;2022-09-14T01:16:56;1.67;;;1.57;;
946;SDS011;460;48.734;9.152;2022-09-14T01:19:42;1.90;;;1.80;;
946;SDS011;460;48.734;9.152;2022-09-14T01:22:25;1.63;;;1.53;;
946;SDS011;460;48.734;9.152;2022-09-14T01:25:05;1.70;;;1.60;;
946;SDS011;460;48.734;9.152;2022-09-14T01:27:39;3.40;;;2.33;;
946;SDS011;460;48.734;9.152;2022-09-14T01:30:09;1.80;;;1.67;;
946;SDS011;460;48.734;9.152;2022-09-14T01:32:40;1.37;;;1.00;;
946;SDS011;460;48.734;9.152;2022-09-14T01:35:13;1.30;;;1.20;;
946;SDS011;460;48.734;9.152;2022-09-14T01:37:44;0.80;;;0.80;;
946;SDS011;460;48.734;9.152;2022-09-14T01:40:17;1.07;;;1.00;;
946;SDS011;460;48.734;9.152;2022-09-14T01:42:52;1.43;;;1.30;;
946;SDS011;460;48.734;9.152;2022-09-14T01:45:23;2.77;;;0.93;;
946;SDS011;460;48.734;9.152;2022-09-14T01:47:55;0.90;;;0.80;;
946;SDS011;460;48.734;9.152;2022-09-14T01:50:27;1.70;;;1.10;;
946;SDS011;460;48.734;9.152;2022-09-14T01:52:59;1.00;;;0.73;;
946;SDS011;460;48.734;9.152;2022-09-14T01:55:35;1.23;;;1.13;;
946;SDS011;460;48.734;9.152;2022-09-14T01:58:10;2.40;;;0.90;;
946;SDS011;460;48.734;9.152;2022-09-14T02:00:43;2.60;;;2.40;;
946;SDS011;460;48.734;9.152;2022-09-14T02:03:13;1.10;;;1.00;;
946;SDS011;460;48.734;9.152;2022-09-14T02:05:47;1.43;;;1.30;;
946;SDS011;460;48.734;9.152;2022-09-14T02:08:20;1.43;;;1.30;;
946;SDS011;460;48.734;9.152;2022-09-14T02:10:49;1.10;;;1.00;;
946;SDS011;460;48.734;9.152;2022-09-14T02:13:18;1.30;;;1.20;;
946;SDS011;460;48.734;9.152;2022-09-14T02:15:45;7.00;;;3.27;;
946;SDS011;460;48.734;9.152;2022-09-14T02:18:14;1.67;;;1.57;;
946;SDS011;460;48.734;9.152;2022-09-14T02:20:41;1.10;;;1.07;;
946;SDS011;460;48.734;9.152;2022-09-14T02:23:12;4.00;;;2.00;;
946;SDS011;460;48.734;9.152;2022-09-14T02:25:39;2.30;;;2.10;;
946;SDS011;460;48.734;9.152;2022-09-14T02:28:07;2.40;;;1.53;;
946;SDS011;460;48.734;9.152;2022-09-14T02:30:38;1.83;;;1.73;;
946;SDS011;460;48.734;9.152;2022-09-14T02:33:16;1.60;;;1.50;;
946;SDS011;460;48.734;9.152;2022-09-14T02:35:51;3.30;;;2.33;;
946;SDS011;460;48.734;9.152;2022-09-14T02:38:24;2.57;;;2.37;;
946;SDS011;460;48.734;9.152;2022-09-14T02:41:01;3.13;;;1.67;;
946;SDS011;460;48.734;9.152;2022-09-14T02:43:32;1.70;;;1.60;;
946;SDS011;460;48.734;9.152;2022-09-14T02:46:11;2.27;;;1.97;;
946;SDS011;460;48.734;9.152;2022-09-14T02:48:46;1.67;;;1.57;;
946;SDS011;460;48.734;9.152;2022-09-14T02:51:20;1.53;;;1.23;;
946;SDS011;460;48.734;9.152;2022-09-14T02:53:55;2.17;;;1.57;;
946;SDS011;460;48.734;9.152;2022-09-14T02:56:27;2.37;;;2.17;;
946;SDS011;460;48.734;9.152;2022-09-14T02:58:54;3.63;;;2.23;;
946;SDS011;460;48.734;9.152;2022-09-14T03:01:24;1.80;;;1.70;;
946;SDS011;460;48.734;9.152;2022-09-14T03:03:53;2.23;;;2.10;;
946;SDS011;460;48.734;9.152;2022-09-14T03:06:21;1.90;;;1.80;;
946;SDS011;460;48.734;9.152;2022-09-14T03:08:49;2.00;;;1.70;;
946;SDS011;460;48.734;9.152;2022-09-14T03:11:16;2.60;;;2.40;;
946;SDS011;460;48.734;9.152;2022-09-14T03:13:43;2.40;;;2.20;;
946;SDS011;460;48.734;9.152;2022-09-14T03:16:11;2.40;;;1.73;;
946;SDS011;460;48.734;9.152;2022-09-14T03:18:41;1.90;;;1.80;;
946;SDS011;460;48.734;9.152;2022-09-14T03:21:09;1.87;;;1.77;;
946;SDS011;460;48.734;9.152;2022-09-14T03:23:38;2.53;;;2.23;;
946;SDS011;460;48.734;9.152;2022-09-14T03:26:08;3.17;;;2.80;;
946;SDS011;460;48.734;9.152;2022-09-14T03:28:35;1.90;;;1.80;;
946;SDS011;460;48.734;9.152;2022-09-14T03:31:03;2.40;;;2.20;;
946;SDS011;460;48.734;9.152;2022-09-14T03:33:32;2.10;;;1.90;;
946;SDS011;460;48.734;9.152;2022-09-14T03:36:07;2.20;;;2.10;;
946;SDS011;460;48.734;9.152;2022-09-14T03:38:36;2.47;;;2.10;;
946;SDS011;460;48.734;9.152;2022-09-14T03:41:06;2.50;;;2.30;;
946;SDS011;460;48.734;9.152;2022-09-14T03:43:33;2.10;;;1.90;;
946;SDS011;460;48.734;9.152;2022-09-14T03:46:03;1.80;;;1.70;;
946;SDS011;460;48.734;9.152;2022-09-14T03:48:30;1.70;;;1.60;;
946;SDS011;460;48.734;9.152;2022-09-14T03:50:58;1.93;;;1.43;;
946;SDS011;460;48.734;9.152;2022-09-14T03:53:28;2.07;;;1.90;;
946;SDS011;460;48.734;9.152;2022-09-14T03:55:55;2.70;;;2.10;;
946;SDS011;460;48.734;9.152;2022-09-14T03:58:22;2.20;;;2.00;;
946;SDS011;460;48.734;9.152;2022-09-14T04:00:51;2.50;;;2.30;;
946;SDS011;460;48.734;9.152;2022-09-14T04:03:18;2.17;;;1.97;;
946;SDS011;460;48.734;9.152;2022-09-14T04:05:52;2.77;;;1.93;;
946;SDS011;460;48.734;9.152;2022-09-14T04:08:21;2.10;;;1.90;;
946;SDS011;460;48.734;9.152;2022-09-14T04:10:48;1.73;;;1.63;;
946;SDS011;460;48.734;9.152;2022-09-14T04:13:15;6.00;;;2.30;;
946;SDS011;460;48.734;9.152;2022-09-14T04:15:42;1.77;;;1.67;;
946;SDS011;460;48.734;9.152;2022-09-14T04:18:08;1.80;;;1.70;;
946;SDS011;460;48.734;9.152;2022-09-14T04:20:36;2.33;;;2.20;;
946;SDS011;460;48.734;9.152;2022-09-14T04:23:03;2.67;;;1.90;;
946;SDS011;460;48.734;9.152;2022-09-14T04:25:31;2.83;;;2.63;;
946;SDS011;460;48.734;9.152;2022-09-14T04:27:57;2.07;;;1.90;;
946;SDS011;460;48.734;9.152;2022-09-14T04:30:25;2.27;;;2.07;;
946;SDS011;460;48.734;9.152;2022-09-14T04:32:52;2.63;;;2.40;;
946;SDS011;460;48.734;9.152;2022-09-14T04:35:22;2.33;;;2.13;;
946;SDS011;460;48.734;9.152;2022-09-14T04:37:56;2.50;;;2.30;;
946;SDS011;460;48.734;9.152;2022-09-14T04:40:23;3.00;;;2.70;;
946;SDS011;460;48.734;9.152;2022-09-14T04:42:54;3.73;;;3.37;;
946;SDS011;460;48.734;9.152;2022-09-14T04:45:20;2.50;;;2.30;;
946;SDS011;460;48.734;9.152;2022-09-14T04:47:47;3.40;;;2.77;;
946;SDS011;460;48.734;9.152;2022-09-14T04:50:14;2.57;;;2.40;;
946;SDS011;460;48.734;9.152;2022-09-14T04:52:41;3.17;;;2.90;;
946;SDS011;460;48.734;9.152;2022-09-14T04:55:08;2.60;;;2.40;;
946;SDS011;460;48.734;9.152;2022-09-14T04:57:35;3.53;;;3.23;;
946;SDS011;460;48.734;9.152;2022-09-14T05:00:03;2.67;;;2.47;;
946;SDS011;460;48.734;9.152;2022-09-14T05:02:31;3.03;;;2.83;;
946;SDS011;460;48.734;9.152;2022-09-14T05:04:58;2.70;;;2.50;;
946;SDS011;460;48.734;9.152;2022-09-14T05:07:25;2.30;;;2.10;;
946;SDS011;460;48.734;9.152;2022-09-14T05:09:52;1.90;;;1.80;;
946;SDS011;460;48.734;9.152;2022-09-14T05:12:19;2.13;;;2.03;;
946;SDS011;460;48.734;9.152;2022-09-14T05:14:46;2.10;;;2.00;;
946;SDS011;460;48.734;9.152;2022-09-14T05:17:14;3.17;;;2.87;;
946;SDS011;460;48.734;9.152;2022-09-14T05:19:41;3.00;;;2.80;;
946;SDS011;460;48.734;9.152;2022-09-14T05:22:08;2.87;;;2.67;;
946;SDS011;460;48.734;9.152;2022-09-14T05:24:34;2.60;;;1.97;;
946;SDS011;460;48.734;9.152;2022-09-14T05:27:01;4.50;;;2.30;;
946;SDS011;460;48.734;9.152;2022-09-14T05:29:28;2.37;;;2.27;;
946;SDS011;460;48.734;9.152;2022-09-14T05:31:56;2.17;;;2.07;;
946;SDS011;460;48.734;9.152;2022-09-14T05:34:24;4.00;;;3.60;;
946;SDS011;460;48.734;9.152;2022-09-14T05:36:51;2.80;;;2.60;;
946;SDS011;460;48.734;9.152;2022-09-14T05:39:18;2.67;;;2.47;;
946;SDS011;460;48.734;9.152;2022-09-14T05:41:47;2.77;;;2.57;;
946;SDS011;460;48.734;9.152;2022-09-14T05:44:14;2.83;;;2.63;;
946;SDS011;460;48.734;9.152;2022-09-14T05:46:40;3.37;;;3.07;;
946;SDS011;460;48.734;9.152;2022-09-14T05:49:07;2.40;;;2.27;;
946;SDS011;460;48.734;9.152;2022-09-14T05:51:35;2.33;;;2.13;;
946;SDS011;460;48.734;9.152;2022-09-14T05:54:02;5.20;;;2.50;;
946;SDS011;460;48.734;9.152;2022-09-14T05:56:34;2.80;;;2.60;;
946;SDS011;460;48.734;9.152;2022-09-14T05:59:01;3.80;;;2.47;;
946;SDS011;460;48.734;9.152;2022-09-14T06:01:29;4.20;;;3.50;;
946;SDS011;460;48.734;9.152;2022-09-14T06:03:58;2.53;;;2.33;;
946;SDS011;460;48.734;9.152;2022-09-14T06:06:27;3.20;;;2.53;;
946;SDS011;460;48.734;9.152;2022-09-14T06:08:56;3.40;;;2.63;;
946;SDS011;460;48.734;9.152;2022-09-14T06:11:24;2.50;;;2.30;;
946;SDS011;460;48.734;9.152;2022-09-14T06:13:53;3.03;;;2.63;;
946;SDS011;460;48.734;9.152;2022-09-14T06:16:21;4.20;;;3.37;;
946;SDS011;460;48.734;9.152;2022-09-14T06:18:49;2.90;;;2.30;;
946;SDS011;460;48.734;9.152;2022-09-14T06:21:17;2.90;;;2.70;;
946;SDS011;460;48.734;9.152;2022-09-14T06:23:46;2.40;;;2.20;;
946;SDS011;460;48.734;9.152;2022-09-14T06:26:15;2.13;;;1.87;;
946;SDS011;460;48.734;9.152;2022-09-14T06:28:42;2.50;;;2.40;;
946;SDS011;460;48.734;9.152;2022-09-14T06:31:10;2.20;;;2.00;;
946;SDS011;460;48.734;9.152;2022-09-14T06:33:41;2.90;;;2.70;;
946;SDS011;460;48.734;9.152;2022-09-14T06:36:09;2.43;;;2.33;;
946;SDS011;460;48.734;9.152;2022-09-14T06:38:38;2.57;;;2.37;;
946;SDS011;460;48.734;9.152;2022-09-14T06:41:06;2.13;;;1.90;;
946;SDS011;460;48.734;9.152;2022-09-14T06:43:36;2.33;;;2.13;;
946;SDS011;460;48.734;9.152;2022-09-14T06:46:04;3.40;;;2.60;;
946;SDS011;460;48.734;9.152;2022-09-14T06:48:33;2.40;;;2.20;;
946;SDS011;460;48.734;9.152;2022-09-14T06:51:09;3.50;;;2.97;;
946;SDS011;460;48.734;9.152;2022-09-14T06:53:37;2.57;;;2.37;;
946;SDS011;460;48.734;9.152;2022-09-14T06:56:04;2.40;;;2.10;;
946;SDS011;460;48.734;9.152;2022-09-14T06:58:33;2.20;;;2.03;;
946;SDS011;460;48.734;9.152;2022-09-14T07:01:02;2.40;;;2.30;;
946;SDS011;460;48.734;9.152;2022-09-14T07:03:29;3.27;;;2.20;;
946;SDS011;460;48.734;9.152;2022-09-14T07:06:06;3.03;;;2.57;;
946;SDS011;460;48.734;9.152;2022-09-14T07:08:34;2.60;;;2.40;;
946;SDS011;460;48.734;9.152;2022-09-14T07:11:02;2.80;;;2.43;;
946;SDS011;460;48.734;9.152;2022-09-14T07:13:31;3.47;;;2.50;;
946;SDS011;460;48.734;9.152;2022-09-14T07:15:58;2.20;;;2.00;;
946;SDS011;460;48.734;9.152;2022-09-14T07:18:29;2.20;;;1.90;;
946;SDS011;460;48.734;9.152;2022-09-14T07:20:59;2.43;;;1.93;;
946;SDS011;460;48.734;9.152;2022-09-14T07:23:27;2.77;;;2.57;;
946;SDS011;460;48.734;9.152;2022-09-14T07:25:58;2.60;;;2.37;;
946;SDS011;460;48.734;9.152;2022-09-14T07:28:28;3.57;;;3.27;;
946;SDS011;460;48.734;9.152;2022-09-14T07:30:54;2.97;;;2.77;;
946;SDS011;460;48.734;9.152;2022-09-14T07:33:22;3.53;;;2.97;;
946;SDS011;460;48.734;9.152;2022-09-14T07:35:53;2.50;;;2.40;;
946;SDS011;460;48.734;9.152;2022-09-14T07:38:20;2.60;;;2.40;;
946;SDS011;460;48.734;9.152;2022-09-14T07:40:46;4.00;;;2.20;;
946;SDS011;460;48.734;9.152;2022-09-14T07:43:13;2.70;;;2.50;;
946;SDS011;460;48.734;9.152;2022-09-14T07:45:40;2.90;;;2.27;;
946;SDS011;460;48.734;9.152;2022-09-14T07:48:07;3.33;;;2.73;;
946;SDS011;460;48.734;9.152;2022-09-14T07:50:33;2.53;;;2.33;;
946;SDS011;460;48.734;9.152;2022-09-14T07:53:02;2.87;;;2.67;;
946;SDS011;460;48.734;9.152;2022-09-14T07:55:28;2.80;;;2.60;;
946;SDS011;460;48.734;9.152;2022-09-14T07:57:56;2.30;;;2.10;;
946;SDS011;460;48.734;9.152;2022-09-14T08:00:23;2.37;;;2.17;;
946;SDS011;460;48.734;9.152;2022-09-14T08:02:51;2.80;;;2.20;;
946;SDS011;460;48.734;9.152;2022-09-14T08:05:19;3.27;;;2.67;;
946;SDS011;460;48.734;9.152;2022-09-14T08:07:46;3.47;;;2.60;;
946;SDS011;460;48.734;9.152;2022-09-14T08:10:14;3.33;;;3.13;;
946;SDS011;460;48.734;9.152;2022-09-14T08:12:41;2.87;;;2.57;;
946;SDS011;460;48.734;9.152;2022-09-14T08:15:08;2.30;;;2.10;;
946;SDS011;460;48.734;9.152;2022-09-14T08:17:36;3.03;;;2.77;;
946;SDS011;460;48.734;9.152;2022-09-14T08:20:03;2.37;;;2.17;;
946;SDS011;460;48.734;9.152;2022-09-14T08:22:30;2.37;;;2.17;;
946;SDS011;460;48.734;9.152;2022-09-14T08:24:57;2.07;;;1.97;;
946;SDS011;460;48.734;9.152;2022-09-14T08:27:26;2.77;;;2.57;;
946;SDS011;460;48.734;9.152;2022-09-14T08:29:52;1.97;;;1.87;;
946;SDS011;460;48.734;9.152;2022-09-14T08:32:19;2.40;;;2.20;;
946;SDS011;460;48.734;9.152;2022-09-14T08:34:46;2.47;;;2.27;;
946;SDS011;460;48.734;9.152;2022-09-14T08:37:13;2.57;;;2.37;;
946;SDS011;460;48.734;9.152;2022-09-14T08:39:40;2.00;;;1.80;;
946;SDS011;460;48.734;9.152;2022-09-14T08:42:07;2.40;;;2.20;;
946;SDS011;460;48.734;9.152;2022-09-14T08:44:42;4.77;;;2.60;;
946;SDS011;460;48.734;9.152;2022-09-14T08:47:15;2.87;;;2.40;;
946;SDS011;460;48.734;9.152;2022-09-14T08:49:45;2.60;;;2.00;;
946;SDS011;460;48.734;9.152;2022-09-14T08:52:17;2.00;;;1.80;;
946;SDS011;460;48.734;9.152;2022-09-14T08:54:51;2.67;;;2.47;;
946;SDS011;460;48.734;9.152;2022-09-14T08:57:22;2.30;;;2.20;;
946;SDS011;460;48.734;9.152;2022-09-14T08:59:57;1.83;;;1.73;;
946;SDS011;460;48.734;9.152;2022-09-14T09:02:34;1.80;;;1.70;;
946;SDS011;460;48.734;9.152;2022-09-14T09:05:22;2.33;;;2.23;;
946;SDS011;460;48.734;9.152;2022-09-14T09:07:59;2.63;;;2.27;;
946;SDS011;460;48.734;9.152;2022-09-14T09:10:30;2.57;;;2.37;;
946;SDS011;460;48.734;9.152;2022-09-14T09:12:59;2.53;;;1.90;;
946;SDS011;460;48.734;9.152;2022-09-14T09:15:31;1.80;;;1.70;;
946;SDS011;460;48.734;9.152;2022-09-14T09:18:03;2.67;;;2.17;;
946;SDS011;460;48.734;9.152;2022-09-14T09:20:33;2.63;;;2.20;;
946;SDS011;460;48.734;9.152;2022-09-14T09:23:06;2.30;;;1.90;;
946;SDS011;460;48.734;9.152;2022-09-14T09:25:43;1.70;;;1.60;;
946;SDS011;460;48.734;9.152;2022-09-14T09:28:17;2.40;;;2.20;;
946;SDS011;460;48.734;9.152;2022-09-14T09:30:46;1.70;;;1.60;;
946;SDS011;460;48.734;9.152;2022-09-14T09:33:14;1.80;;;1.70;;
946;SDS011;460;48.734;9.152;2022-09-14T09:35:45;2.07;;;1.90;;
946;SDS011;460;48.734;9.152;2022-09-14T09:38:12;1.70;;;1.60;;
946;SDS011;460;48.734;9.152;2022-09-14T09:40:42;4.83;;;2.57;;
946;SDS011;460;48.734;9.152;2022-09-14T09:43:13;2.40;;;2.07;;
946;SDS011;460;48.734;9.152;2022-09-14T09:45:55;1.60;;;1.50;;
946;SDS011;460;48.734;9.152;2022-09-14T09:48:24;3.70;;;1.80;;
946;SDS011;460;48.734;9.152;2022-09-14T09:51:02;2.37;;;2.17;;
946;SDS011;460;48.734;9.152;2022-09-14T09:53:32;2.07;;;1.97;;
946;SDS011;460;48.734;9.152;2022-09-14T09:56:02;4.67;;;2.30;;
946;SDS011;460;48.734;9.152;2022-09-14T09:58:31;2.10;;;1.90;;
946;SDS011;460;48.734;9.152;2022-09-14T10:01:02;1.97;;;1.87;;
946;SDS011;460;48.734;9.152;2022-09-14T10:03:32;1.70;;;1.60;;
946;SDS011;460;48.734;9.152;2022-09-14T10:06:04;2.40;;;2.20;;
946;SDS011;460;48.734;9.152;2022-09-14T10:08:38;1.90;;;1.80;;
946;SDS011;460;48.734;9.152;2022-09-14T10:13:53;2.30;;;2.20;;
946;SDS011;460;48.734;9.152;2022-09-14T10:16:23;2.37;;;2.03;;
946;SDS011;460;48.734;9.152;2022-09-14T10:18:54;1.93;;;1.83;;
946;SDS011;460;48.734;9.152;2022-09-14T10:21:21;2.37;;;2.17;;
946;SDS011;460;48.734;9.152;2022-09-14T10:24:00;2.13;;;1.93;;
946;SDS011;460;48.734;9.152;2022-09-14T10:26:31;2.10;;;2.00;;
946;SDS011;460;48.734;9.152;2022-09-14T10:32:06;2.63;;;2.40;;
946;SDS011;460;48.734;9.152;2022-09-14T10:34:42;3.87;;;2.40;;
946;SDS011;460;48.734;9.152;2022-09-14T10:37:18;3.00;;;2.80;;
946;SDS011;460;48.734;9.152;2022-09-14T10:39:58;2.30;;;2.10;;
946;SDS011;460;48.734;9.152;2022-09-14T10:42:38;2.13;;;1.50;;
946;SDS011;460;48.734;9.152;2022-09-14T10:45:16;1.90;;;1.77;;
946;SDS011;460;48.734;9.152;2022-09-14T10:50:51;2.27;;;2.07;;
946;SDS011;460;48.734;9.152;2022-09-14T10:53:29;2.03;;;1.93;;
946;SDS011;460;48.734;9.152;2022-09-14T10:56:06;2.17;;;2.07;;
946;SDS011;460;48.734;9.152;2022-09-14T10:58:40;1.47;;;1.37;;
946;SDS011;460;48.734;9.152;2022-09-14T11:01:21;2.70;;;1.90;;
946;SDS011;460;48.734;9.152;2022-09-14T11:04:03;2.07;;;1.90;;
946;SDS011;460;48.734;9.152;2022-09-14T11:06:46;2.03;;;1.90;;
946;SDS011;460;48.734;9.152;2022-09-14T11:09:20;1.80;;;1.70;;
946;SDS011;460;48.734;9.152;2022-09-14T11:11:53;3.60;;;2.47;;
946;SDS011;460;48.734;9.152;2022-09-14T11:14:34;2.77;;;1.97;;
946;SDS011;460;48.734;9.152;2022-09-14T11:17:23;2.07;;;1.97;;
946;SDS011;460;48.734;9.152;2022-09-14T11:20:20;2.03;;;1.83;;
946;SDS011;460;48.734;9.152;2022-09-14T11:22:55;1.77;;;1.67;;
946;SDS011;460;48.734;9.152;2022-09-14T11:25:38;1.70;;;1.60;;
946;SDS011;460;48.734;9.152;2022-09-14T11:28:11;4.10;;;1.73;;
946;SDS011;460;48.734;9.152;2022-09-14T11:30:42;1.50;;;1.40;;
946;SDS011;460;48.734;9.152;2022-09-14T11:33:15;1.70;;;1.60;;
946;SDS011;460;48.734;9.152;2022-09-14T11:36:11;1.97;;;1.87;;
946;SDS011;460;48.734;9.152;2022-09-14T11:38:48;1.93;;;1.60;;
946;SDS011;460;48.734;9.152;2022-09-14T11:41:21;3.70;;;1.63;;
946;SDS011;460;48.734;9.152;2022-09-14T11:43:54;1.87;;;1.53;;
946;SDS011;460;48.734;9.152;2022-09-14T11:46:26;1.57;;;1.37;;
946;SDS011;460;48.734;9.152;2022-09-14T11:48:58;1.70;;;1.60;;
946;SDS011;460;48.734;9.152;2022-09-14T11:51:38;1.63;;;1.53;;
946;SDS011;460;48.734;9.152;2022-09-14T11:54:20;2.60;;;2.17;;
946;SDS011;460;48.734;9.152;2022-09-14T11:56:54;2.80;;;1.50;;
946;SDS011;460;48.734;9.152;2022-09-14T11:59:33;1.77;;;1.67;;
946;SDS011;460;48.734;9.152;2022-09-14T12:05:31;2.70;;;1.70;;
946;SDS011;460;48.734;9.152;2022-09-14T12:08:02;1.53;;;1.43;;
946;SDS011;460;48.734;9.152;2022-09-14T12:10:31;2.13;;;1.93;;
946;SDS011;460;48.734;9.152;2022-09-14T12:13:30;1.50;;;1.40;;
946;SDS011;460;48.734;9.152;2022-09-14T12:16:01;1.70;;;1.20;;
946;SDS011;460;48.734;9.152;2022-09-14T12:18:30;1.77;;;1.67;;
946;SDS011;460;48.734;9.152;2022-09-14T12:21:01;1.77;;;1.50;;
946;SDS011;460;48.734;9.152;2022-09-14T12:23:39;1.70;;;1.53;;
946;SDS011;460;48.734;9.152;2022-09-14T12:26:26;3.63;;;1.90;;
946;SDS011;460;48.734;9.152;2022-09-14T12:28:56;4.20;;;1.50;;
946;SDS011;460;48.734;9.152;2022-09-14T12:31:32;1.70;;;1.60;;
946;SDS011;460;48.734;9.152;2022-09-14T12:34:24;1.70;;;1.60;;
946;SDS011;460;48.734;9.152;2022-09-14T12:36:55;1.40;;;1.30;;
946;SDS011;460;48.734;9.152;2022-09-14T12:49:22;2.00;;;1.23;;
946;SDS011;460;48.734;9.152;2022-09-14T12:52:01;1.23;;;1.13;;
946;SDS011;460;48.734;9.152;2022-09-14T12:54:50;1.30;;;1.20;;
946;SDS011;460;48.734;9.152;2022-09-14T12:57:28;1.77;;;1.67;;
946;SDS011;460;48.734;9.152;2022-09-14T13:00:00;2.07;;;1.83;;
946;SDS011;460;48.734;9.152;2022-09-14T13:02:47;1.90;;;1.57;;
946;SDS011;460;48.734;9.152;2022-09-14T13:05:32;3.00;;;1.87;;
946;SDS011;460;48.734;9.152;2022-09-14T13:08:00;1.87;;;1.70;;
946;SDS011;460;48.734;9.152;2022-09-14T13:10:33;3.13;;;1.60;;
946;SDS011;460;48.734;9.152;2022-09-14T13:13:04;1.73;;;1.63;;
946;SDS011;460;48.734;9.152;2022-09-14T13:15:43;1.63;;;1.53;;
946;SDS011;460;48.734;9.152;2022-09-14T13:18:25;2.20;;;1.70;;
946;SDS011;460;48.734;9.152;2022-09-14T13:20:56;1.40;;;1.33;;
946;SDS011;460;48.734;9.152;2022-09-14T13:23:26;1.60;;;1.50;;
946;SDS011;460;48.734;9.152;2022-09-14T13:25:55;1.23;;;1.10;;
946;SDS011;460;48.734;9.152;2022-09-14T13:28:22;1.23;;;1.13;;
946;SDS011;460;48.734;9.152;2022-09-14T13:30:53;1.43;;;1.17;;
946;SDS011;460;48.734;9.152;2022-09-14T13:33:21;1.57;;;1.40;;
946;SDS011;460;48.734;9.152;2022-09-14T13:35:50;0.80;;;0.80;;
946;SDS011;460;48.734;9.152;2022-09-14T13:38:20;1.23;;;1.13;;
946;SDS011;460;48.734;9.152;2022-09-14T13:40:49;1.23;;;1.17;;
946;SDS011;460;48.734;9.152;2022-09-14T13:43:19;1.70;;;1.07;;
946;SDS011;460;48.734;9.152;2022-09-14T13:45:47;1.27;;;1.20;;
946;SDS011;460;48.734;9.152;2022-09-14T13:48:15;1.27;;;0.87;;
946;SDS011;460;48.734;9.152;2022-09-14T13:50:52;1.10;;;1.00;;
946;SDS011;460;48.734;9.152;2022-09-14T13:53:35;1.20;;;1.10;;
946;SDS011;460;48.734;9.152;2022-09-14T13:56:14;1.33;;;1.00;;
946;SDS011;460;48.734;9.152;2022-09-14T13:58:42;0.80;;;0.80;;
946;SDS011;460;48.734;9.152;2022-09-14T14:01:09;0.80;;;0.80;;
946;SDS011;460;48.734;9.152;2022-09-14T14:03:37;1.33;;;1.00;;
946;SDS011;460;48.734;9.152;2022-09-14T14:06:18;1.37;;;1.27;;
946;SDS011;460;48.734;9.152;2022-09-14T14:08:52;1.60;;;1.50;;
946;SDS011;460;48.734;9.152;2022-09-14T14:11:25;0.70;;;0.70;;
946;SDS011;460;48.734;9.152;2022-09-14T14:14:10;1.10;;;1.00;;
946;SDS011;460;48.734;9.152;2022-09-14T14:16:38;1.07;;;1.07;;
946;SDS011;460;48.734;9.152;2022-09-14T14:19:23;0.67;;;0.67;;
946;SDS011;460;48.734;9.152;2022-09-14T14:24:41;0.60;;;0.60;;
946;SDS011;460;48.734;9.152;2022-09-14T14:27:17;0.60;;;0.60;;
946;SDS011;460;48.734;9.152;2022-09-14T14:29:52;1.07;;;1.00;;
946;SDS011;460;48.734;9.152;2022-09-14T14:32:20;0.83;;;0.83;;
946;SDS011;460;48.734;9.152;2022-09-14T14:34:47;0.90;;;0.90;;
946;SDS011;460;48.734;9.152;2022-09-14T14:37:15;1.60;;;0.90;;
946;SDS011;460;48.734;9.152;2022-09-14T14:39:42;0.77;;;0.77;;
946;SDS011;460;48.734;9.152;2022-09-14T14:42:09;1.13;;;1.03;;
946;SDS011;460;48.734;9.152;2022-09-14T14:44:36;1.43;;;1.33;;
946;SDS011;460;48.734;9.152;2022-09-14T14:47:04;1.73;;;1.63;;
946;SDS011;460;48.734;9.152;2022-09-14T14:49:31;0.80;;;0.67;;
946;SDS011;460;48.734;9.152;2022-09-14T14:51:58;0.80;;;0.70;;
946;SDS011;460;48.734;9.152;2022-09-14T14:54:26;1.10;;;1.00;;
946;SDS011;460;48.734;9.152;2022-09-14T14:56:53;0.80;;;0.67;;
946;SDS011;460;48.734;9.152;2022-09-14T14:59:23;0.73;;;0.70;;
946;SDS011;460;48.734;9.152;2022-09-14T15:01:53;0.60;;;0.60;;
946;SDS011;460;48.734;9.152;2022-09-14T15:04:20;0.43;;;0.33;;
946;SDS011;460;48.734;9.152;2022-09-14T15:06:47;0.70;;;0.50;;
946;SDS011;460;48.734;9.152;2022-09-14T15:09:15;0.40;;;0.40;;
946;SDS011;460;48.734;9.152;2022-09-14T15:11:45;0.63;;;0.63;;
946;SDS011;460;48.734;9.152;2022-09-14T15:14:13;0.60;;;0.60;;
946;SDS011;460;48.734;9.152;2022-09-14T15:16:41;0.60;;;0.60;;
946;SDS011;460;48.734;9.152;2022-09-14T15:19:09;0.53;;;0.53;;
946;SDS011;460;48.734;9.152;2022-09-14T15:21:36;0.97;;;0.60;;
946;SDS011;460;48.734;9.152;2022-09-14T15:24:03;0.40;;;0.40;;
946;SDS011;460;48.734;9.152;2022-09-14T15:26:30;0.60;;;0.50;;
946;SDS011;460;48.734;9.152;2022-09-14T15:28:58;0.30;;;0.30;;
946;SDS011;460;48.734;9.152;2022-09-14T15:31:25;1.13;;;0.50;;
946;SDS011;460;48.734;9.152;2022-09-14T15:33:52;0.82;;;0.82;;
946;SDS011;460;48.734;9.152;2022-09-14T15:36:35;1.33;;;0.40;;
946;SDS011;460;48.734;9.152;2022-09-14T15:39:03;0.60;;;0.60;;
946;SDS011;460;48.734;9.152;2022-09-14T15:41:31;0.80;;;0.57;;
946;SDS011;460;48.734;9.152;2022-09-14T15:43:59;1.27;;;0.70;;
946;SDS011;460;48.734;9.152;2022-09-14T15:46:27;0.47;;;0.47;;
946;SDS011;460;48.734;9.152;2022-09-14T15:48:54;1.10;;;0.70;;
946;SDS011;460;48.734;9.152;2022-09-14T15:51:21;1.73;;;0.70;;
946;SDS011;460;48.734;9.152;2022-09-14T15:53:48;0.50;;;0.50;;
946;SDS011;460;48.734;9.152;2022-09-14T15:56:16;0.80;;;0.60;;
946;SDS011;460;48.734;9.152;2022-09-14T15:58:44;2.00;;;1.23;;
946;SDS011;460;48.734;9.152;2022-09-14T16:01:13;0.57;;;0.50;;
946;SDS011;460;48.734;9.152;2022-09-14T16:03:42;0.50;;;0.50;;
946;SDS011;460;48.734;9.152;2022-09-14T16:06:09;0.53;;;0.40;;
946;SDS011;460;48.734;9.152;2022-09-14T16:08:37;0.40;;;0.40;;
946;SDS011;460;48.734;9.152;2022-09-14T16:11:05;0.50;;;0.50;;
946;SDS011;460;48.734;9.152;2022-09-14T16:13:33;1.07;;;0.60;;
946;SDS011;460;48.734;9.152;2022-09-14T16:16:01;0.70;;;0.70;;
946;SDS011;460;48.734;9.152;2022-09-14T16:18:30;0.37;;;0.30;;
946;SDS011;460;48.734;9.152;2022-09-14T16:21:02;0.80;;;0.60;;
946;SDS011;460;48.734;9.152;2022-09-14T16:23:30;0.40;;;0.40;;
946;SDS011;460;48.734;9.152;2022-09-14T16:25:58;0.60;;;0.60;;
946;SDS011;460;48.734;9.152;2022-09-14T16:28:25;0.63;;;0.60;;
946;SDS011;460;48.734;9.152;2022-09-14T16:30:52;0.67;;;0.40;;
946;SDS011;460;48.734;9.152;2022-09-14T16:33:28;1.27;;;0.90;;